Time;durP1;ratioP1;P1;durP2;ratioP2;P2;SDS_P1;SDS_P2;PMS_P1;PMS_P2;Temp;Humidity;BMP_temperature;BMP_pressure;BME280_temperature;BME280_humidity;BME280_pressure;Samples;Min_cycle;Max_cycle;Signal;HPM_P1;HPM_P2
2021/12/25 00:00:56;;;;;;;6.80;3.65;;;6.80;99.90;;;;;;2080516;28;20746;-67
2021/12/25 00:02:01;;;;;;;7.55;3.25;;;6.80;99.90;;;;;;2082092;28;20715;-67
2021/12/25 00:03:03;;;;;;;5.32;3.17;;;6.80;99.90;;;;;;2081027;28;20212;-67
2021/12/25 00:04:04;;;;;;;5.57;3.58;;;6.80;99.90;;;;;;2080688;28;20177;-67
2021/12/25 00:05:06;;;;;;;6.20;3.60;;;6.80;99.90;;;;;;2080798;28;20183;-67
2021/12/25 00:06:07;;;;;;;6.88;3.53;;;6.80;99.90;;;;;;2080444;28;20537;-67
2021/12/25 00:07:08;;;;;;;5.88;3.60;;;6.80;99.90;;;;;;2080085;28;20264;-68
2021/12/25 00:08:09;;;;;;;6.57;4.07;;;6.80;99.90;;;;;;2080865;28;20231;-67
2021/12/25 00:09:10;;;;;;;8.17;3.70;;;6.80;99.90;;;;;;2081486;28;20177;-67
2021/12/25 00:10:11;;;;;;;5.03;3.43;;;6.80;99.90;;;;;;2081374;28;20198;-68
2021/12/25 00:11:12;;;;;;;5.10;3.42;;;6.80;99.90;;;;;;2081491;28;20187;-67
2021/12/25 00:12:12;;;;;;;5.47;3.60;;;6.80;99.90;;;;;;2080948;28;20188;-67
2021/12/25 00:13:14;;;;;;;7.50;4.07;;;6.80;99.90;;;;;;2080814;28;20248;-68
2021/12/25 00:14:15;;;;;;;5.63;3.75;;;6.80;99.90;;;;;;2081537;28;20185;-67
2021/12/25 00:15:16;;;;;;;6.10;3.77;;;6.90;99.90;;;;;;2081155;28;20677;-67
2021/12/25 00:16:16;;;;;;;5.07;3.40;;;6.90;99.90;;;;;;2081434;28;20202;-67
2021/12/25 00:17:17;;;;;;;4.90;3.13;;;6.90;99.90;;;;;;2081344;28;20179;-68
2021/12/25 00:18:20;;;;;;;5.50;3.28;;;6.90;99.90;;;;;;2080851;28;20202;-67
2021/12/25 00:19:20;;;;;;;4.45;3.35;;;6.90;99.90;;;;;;2072761;28;20667;-67
2021/12/25 00:20:21;;;;;;;5.03;3.50;;;7.00;99.90;;;;;;2080525;28;20206;-67
2021/12/25 00:21:22;;;;;;;7.73;3.80;;;7.00;99.90;;;;;;2081183;28;20267;-67
2021/12/25 00:22:23;;;;;;;5.47;3.73;;;7.00;99.90;;;;;;2081439;28;20181;-67
2021/12/25 00:23:24;;;;;;;4.47;3.20;;;7.00;99.90;;;;;;2081389;28;20758;-67
2021/12/25 00:24:24;;;;;;;5.03;3.38;;;7.00;99.90;;;;;;2078418;28;20179;-67
2021/12/25 00:25:25;;;;;;;8.47;3.57;;;7.00;99.90;;;;;;2074998;28;20271;-67
2021/12/25 00:26:42;;;;;;;4.90;3.57;;;7.00;99.90;;;;;;2081461;28;20188;-67
2021/12/25 00:27:52;;;;;;;5.55;3.40;;;7.00;99.90;;;;;;2077032;28;20690;-67
2021/12/25 00:29:01;;;;;;;4.85;3.35;;;7.00;99.90;;;;;;2075618;28;20184;-67
2021/12/25 00:31:41;;;;;;;5.20;3.33;;;7.00;99.90;;;;;;2076643;28;20195;-67
2021/12/25 00:32:45;;;;;;;4.05;3.25;;;7.00;99.90;;;;;;2073669;28;20224;-68
2021/12/25 00:34:48;;;;;;;4.93;3.40;;;7.00;99.90;;;;;;2081151;28;20629;-67
2021/12/25 00:35:49;;;;;;;7.38;3.90;;;7.00;99.90;;;;;;2081300;28;20170;-67
2021/12/25 00:36:50;;;;;;;5.93;3.60;;;7.00;99.90;;;;;;2081101;28;20640;-67
2021/12/25 00:37:51;;;;;;;5.30;3.20;;;7.00;99.90;;;;;;2080691;28;20182;-67
2021/12/25 00:38:53;;;;;;;5.07;3.30;;;6.90;99.90;;;;;;2080771;28;20678;-67
2021/12/25 00:39:56;;;;;;;5.82;3.90;;;7.00;99.90;;;;;;2081256;28;20253;-67
2021/12/25 00:40:57;;;;;;;6.15;3.70;;;7.00;99.90;;;;;;2081347;28;20200;-67
2021/12/25 00:41:59;;;;;;;6.15;3.92;;;7.00;99.90;;;;;;2081277;28;20543;-67
2021/12/25 00:43:00;;;;;;;6.40;3.95;;;7.00;99.90;;;;;;2081380;28;20832;-68
2021/12/25 00:44:01;;;;;;;7.43;3.80;;;7.00;99.90;;;;;;2081346;28;20179;-67
2021/12/25 00:45:03;;;;;;;5.20;3.70;;;7.00;99.90;;;;;;2081287;28;20192;-67
2021/12/25 00:46:03;;;;;;;5.25;3.20;;;6.90;99.90;;;;;;2081247;28;20197;-67
2021/12/25 00:47:05;;;;;;;5.43;3.63;;;7.00;99.90;;;;;;2081225;28;20222;-67
2021/12/25 00:48:06;;;;;;;5.97;3.72;;;7.00;99.90;;;;;;2080700;28;20192;-67
2021/12/25 00:49:07;;;;;;;6.33;3.67;;;7.00;99.90;;;;;;2080859;28;20674;-67
2021/12/25 00:50:09;;;;;;;5.03;3.53;;;7.00;99.90;;;;;;2081166;28;20678;-67
2021/12/25 00:51:10;;;;;;;7.30;3.88;;;7.00;99.90;;;;;;2080743;28;20187;-67
2021/12/25 00:52:11;;;;;;;7.20;3.77;;;7.00;99.90;;;;;;2080580;28;20183;-67
2021/12/25 00:53:11;;;;;;;4.82;3.47;;;7.00;99.90;;;;;;2080694;28;20179;-67
2021/12/25 00:54:14;;;;;;;5.17;3.50;;;7.00;99.90;;;;;;2080761;28;20185;-67
2021/12/25 00:55:15;;;;;;;5.10;3.60;;;7.00;99.90;;;;;;2080487;28;20596;-68
2021/12/25 00:56:16;;;;;;;6.60;4.00;;;7.00;99.90;;;;;;2080614;28;20259;-68
2021/12/25 00:57:16;;;;;;;8.00;3.77;;;7.00;99.90;;;;;;2077786;28;20186;-67
2021/12/25 00:58:17;;;;;;;5.87;3.90;;;7.00;99.90;;;;;;2072411;28;20178;-67
2021/12/25 00:59:18;;;;;;;5.40;3.33;;;7.00;99.90;;;;;;2072449;28;20182;-67
2021/12/25 01:00:20;;;;;;;6.20;3.93;;;7.00;99.90;;;;;;2072527;28;20178;-67
2021/12/25 01:01:20;;;;;;;4.32;3.10;;;7.00;99.90;;;;;;2072568;28;20264;-68
2021/12/25 01:02:21;;;;;;;4.90;3.70;;;7.00;99.90;;;;;;2072508;28;20183;-67
2021/12/25 01:03:22;;;;;;;8.23;3.33;;;7.00;99.90;;;;;;2073082;28;20553;-68
2021/12/25 01:04:22;;;;;;;7.07;4.17;;;7.00;99.90;;;;;;2073081;28;20179;-67
2021/12/25 01:05:23;;;;;;;5.43;3.90;;;7.00;99.90;;;;;;2074568;28;20205;-67
2021/12/25 01:06:24;;;;;;;7.03;3.90;;;7.10;99.90;;;;;;2074643;28;20185;-68
2021/12/25 01:07:24;;;;;;;5.40;3.40;;;7.10;99.90;;;;;;2074032;28;20629;-67
2021/12/25 01:08:25;;;;;;;5.67;4.03;;;7.10;99.90;;;;;;2074000;28;20646;-67
2021/12/25 01:09:26;;;;;;;5.30;3.53;;;7.10;99.90;;;;;;2074559;28;20180;-68
2021/12/25 01:10:28;;;;;;;6.13;3.87;;;7.10;99.90;;;;;;2074060;28;20174;-67
2021/12/25 01:11:31;;;;;;;4.93;3.60;;;7.10;99.90;;;;;;2074139;28;20188;-67
2021/12/25 01:12:41;;;;;;;5.28;3.60;;;7.10;99.90;;;;;;2074665;28;20207;-67
2021/12/25 01:13:49;;;;;;;5.60;3.65;;;7.10;99.90;;;;;;2074749;28;20168;-67
2021/12/25 01:14:56;;;;;;;7.60;3.75;;;7.10;99.90;;;;;;2074389;28;20173;-67
2021/12/25 01:16:18;;;;;;;6.07;3.13;;;7.10;99.90;;;;;;2074682;28;20221;-67
2021/12/25 01:17:58;;;;;;;6.65;3.83;;;7.10;99.90;;;;;;2074592;28;20181;-67
2021/12/25 01:20:28;;;;;;;5.65;3.60;;;7.10;99.90;;;;;;2074537;28;20211;-67
2021/12/25 01:28:29;;;;;;;4.73;3.43;;;7.00;99.90;;;;;;2073634;28;20198;-67
2021/12/25 01:30:22;;;;;;;5.03;3.58;;;7.00;99.90;;;;;;2073792;28;20225;-67
2021/12/25 01:31:35;;;;;;;7.03;4.00;;;7.00;99.90;;;;;;2073957;28;20164;-68
2021/12/25 01:34:13;;;;;;;7.10;3.72;;;6.90;99.90;;;;;;2075236;28;20216;-67
2021/12/25 01:37:41;;;;;;;6.32;3.97;;;6.90;99.90;;;;;;2073983;28;20597;-67
2021/12/25 01:40:12;;;;;;;6.18;3.92;;;6.90;99.90;;;;;;2074723;28;20726;-67
2021/12/25 01:41:29;;;;;;;7.10;4.20;;;6.90;99.90;;;;;;2074489;28;20245;-67
2021/12/25 01:47:53;;;;;;;5.82;3.33;;;6.90;99.90;;;;;;2074239;28;20640;-67
2021/12/25 01:48:54;;;;;;;7.32;4.03;;;6.90;99.90;;;;;;2074406;28;20191;-67
2021/12/25 01:49:58;;;;;;;6.10;3.70;;;6.90;99.90;;;;;;2074343;28;20205;-67
2021/12/25 01:50:58;;;;;;;5.10;3.50;;;6.90;99.90;;;;;;2074307;28;20191;-68
2021/12/25 01:52:00;;;;;;;7.13;3.90;;;6.80;99.90;;;;;;2074395;28;20589;-67
2021/12/25 01:53:00;;;;;;;5.20;3.60;;;6.80;99.90;;;;;;2074288;28;20267;-67
2021/12/25 01:54:01;;;;;;;6.83;3.50;;;6.80;99.90;;;;;;2074368;28;20192;-67
2021/12/25 01:55:13;;;;;;;6.70;4.20;;;6.80;99.90;;;;;;2074008;28;20187;-67
2021/12/25 01:56:15;;;;;;;7.60;3.88;;;6.80;99.90;;;;;;2074350;28;20172;-67
2021/12/25 01:57:16;;;;;;;5.50;3.50;;;6.70;99.90;;;;;;2074188;28;20184;-67
2021/12/25 01:58:17;;;;;;;7.47;4.00;;;6.70;99.90;;;;;;2074310;28;20646;-67
2021/12/25 01:59:18;;;;;;;6.45;3.40;;;6.70;99.90;;;;;;2074127;28;20179;-67
2021/12/25 02:00:28;;;;;;;5.60;3.73;;;6.70;99.90;;;;;;2074256;28;20195;-67
2021/12/25 02:01:29;;;;;;;4.97;3.25;;;6.70;99.90;;;;;;2074254;28;20530;-68
2021/12/25 02:02:30;;;;;;;4.83;3.10;;;6.70;99.90;;;;;;2074230;28;20203;-67
2021/12/25 02:03:31;;;;;;;4.33;3.23;;;6.70;99.90;;;;;;2074238;28;20174;-67
2021/12/25 02:04:32;;;;;;;4.75;3.33;;;6.70;99.90;;;;;;2073482;28;20240;-67
2021/12/25 02:05:33;;;;;;;8.33;3.67;;;6.70;99.90;;;;;;2073518;28;20185;-67
2021/12/25 02:06:33;;;;;;;4.63;3.20;;;6.70;99.90;;;;;;2074179;28;20182;-67
2021/12/25 02:07:34;;;;;;;7.27;3.27;;;6.70;99.90;;;;;;2074053;28;20608;-68
2021/12/25 02:08:41;;;;;;;5.73;3.50;;;6.60;99.90;;;;;;2074266;28;20686;-67
2021/12/25 02:09:41;;;;;;;6.30;3.75;;;6.60;99.90;;;;;;2074130;28;20201;-67
2021/12/25 02:10:42;;;;;;;4.00;3.10;;;6.60;99.90;;;;;;2074223;28;20683;-67
2021/12/25 02:11:43;;;;;;;5.80;3.40;;;6.60;99.90;;;;;;2074185;28;20192;-67
2021/12/25 02:12:46;;;;;;;5.28;3.40;;;6.60;99.90;;;;;;2074067;28;20648;-67
2021/12/25 02:13:48;;;;;;;4.38;3.30;;;6.60;99.90;;;;;;2073456;28;20185;-67
2021/12/25 02:14:49;;;;;;;6.30;3.78;;;6.60;99.90;;;;;;2076443;28;20656;-67
2021/12/25 02:15:53;;;;;;;4.63;3.30;;;6.60;99.90;;;;;;2081857;28;20181;-67
2021/12/25 02:16:59;;;;;;;5.10;3.47;;;6.60;99.90;;;;;;2081644;28;20173;-67
2021/12/25 02:18:10;;;;;;;4.93;3.45;;;6.60;99.90;;;;;;2082225;28;20181;-67
2021/12/25 02:19:21;;;;;;;5.97;3.30;;;6.60;99.90;;;;;;2082406;28;20173;-67
2021/12/25 02:20:33;;;;;;;5.40;3.30;;;6.60;99.90;;;;;;2081720;28;20181;-67
2021/12/25 02:21:39;;;;;;;7.45;3.55;;;6.60;99.90;;;;;;2081929;28;20162;-67
2021/12/25 02:22:40;;;;;;;4.60;2.90;;;6.60;99.90;;;;;;2081693;28;20159;-67
2021/12/25 02:23:41;;;;;;;4.47;3.13;;;6.60;99.90;;;;;;2081506;28;20619;-67
2021/12/25 02:24:41;;;;;;;4.57;3.57;;;6.60;99.90;;;;;;2081591;28;20170;-68
2021/12/25 02:25:43;;;;;;;5.63;3.40;;;6.70;99.90;;;;;;2082200;28;20534;-67
2021/12/25 02:26:45;;;;;;;5.38;3.60;;;6.70;99.90;;;;;;2081568;28;20185;-67
2021/12/25 02:27:45;;;;;;;8.55;3.72;;;6.70;99.90;;;;;;2081516;28;20184;-67
2021/12/25 02:28:46;;;;;;;4.40;3.30;;;6.70;99.90;;;;;;2081605;28;20183;-67
2021/12/25 02:29:47;;;;;;;3.53;2.77;;;6.70;99.90;;;;;;2081550;28;20253;-67
2021/12/25 02:30:52;;;;;;;9.20;3.67;;;6.70;99.90;;;;;;2082315;28;20198;-67
2021/12/25 02:31:53;;;;;;;7.40;3.65;;;6.70;99.90;;;;;;2082188;28;20165;-67
2021/12/25 02:32:57;;;;;;;4.70;3.30;;;6.70;99.90;;;;;;2082210;28;20555;-67
2021/12/25 02:33:58;;;;;;;5.43;3.40;;;6.70;99.90;;;;;;2082035;28;20413;-67
2021/12/25 02:34:58;;;;;;;5.83;3.30;;;6.70;99.90;;;;;;2081345;28;20267;-67
2021/12/25 02:35:59;;;;;;;4.57;3.23;;;6.70;99.90;;;;;;2081552;28;20187;-67
2021/12/25 02:37:00;;;;;;;4.43;3.03;;;6.70;99.90;;;;;;2081503;28;20181;-67
2021/12/25 02:38:01;;;;;;;6.00;2.80;;;6.70;99.90;;;;;;2082122;28;20600;-67
2021/12/25 02:39:02;;;;;;;4.40;3.00;;;6.70;99.90;;;;;;2082083;28;20173;-67
2021/12/25 02:40:03;;;;;;;4.20;3.00;;;6.70;99.90;;;;;;2082116;28;20211;-68
2021/12/25 02:41:05;;;;;;;4.38;3.08;;;6.70;99.90;;;;;;2082058;28;20271;-67
2021/12/25 02:42:06;;;;;;;4.60;2.78;;;6.70;99.90;;;;;;2082129;28;20240;-67
2021/12/25 02:43:07;;;;;;;5.72;3.20;;;6.70;99.90;;;;;;2082044;28;20214;-67
2021/12/25 02:44:08;;;;;;;6.63;3.20;;;6.70;99.90;;;;;;2082110;28;20634;-67
2021/12/25 02:45:17;;;;;;;4.68;2.63;;;6.70;99.90;;;;;;2081804;28;20189;-67
2021/12/25 02:46:18;;;;;;;4.45;2.70;;;6.70;99.90;;;;;;2082157;28;20563;-67
2021/12/25 02:47:20;;;;;;;4.07;3.10;;;6.80;99.90;;;;;;2081327;28;20185;-67
2021/12/25 02:48:23;;;;;;;5.75;2.70;;;6.70;99.90;;;;;;2081430;28;20231;-67
2021/12/25 02:49:24;;;;;;;4.60;2.72;;;6.70;99.90;;;;;;2081930;28;20645;-67
2021/12/25 02:50:29;;;;;;;5.85;3.08;;;6.70;99.90;;;;;;2082086;28;20232;-67
2021/12/25 02:51:30;;;;;;;7.32;2.97;;;6.70;99.90;;;;;;2081511;28;20186;-67
2021/12/25 02:52:30;;;;;;;6.00;2.70;;;6.70;99.90;;;;;;2081519;28;20683;-67
2021/12/25 02:53:32;;;;;;;3.30;2.57;;;6.70;99.90;;;;;;2081460;28;20260;-67
2021/12/25 02:54:32;;;;;;;5.35;3.00;;;6.60;99.90;;;;;;2081944;28;20836;-67
2021/12/25 02:55:34;;;;;;;3.43;2.60;;;6.60;99.90;;;;;;2081844;28;20296;-67
2021/12/25 02:56:35;;;;;;;3.55;2.47;;;6.60;99.90;;;;;;2079403;28;20204;-67
2021/12/25 02:57:35;;;;;;;6.10;3.03;;;6.60;99.90;;;;;;2073194;28;20265;-67
2021/12/25 02:58:36;;;;;;;4.57;2.73;;;6.60;99.90;;;;;;2073848;28;20648;-67
2021/12/25 02:59:38;;;;;;;3.40;2.70;;;6.60;99.90;;;;;;2073650;28;20204;-67
2021/12/25 03:00:47;;;;;;;3.47;2.67;;;6.60;99.90;;;;;;2073165;28;20177;-67
2021/12/25 03:01:48;;;;;;;4.43;3.00;;;6.60;99.90;;;;;;2073269;28;20178;-67
2021/12/25 03:02:49;;;;;;;3.40;2.50;;;6.60;99.90;;;;;;2073140;28;20186;-67
2021/12/25 03:03:50;;;;;;;3.80;2.60;;;6.60;99.90;;;;;;2073164;28;20179;-67
2021/12/25 03:04:51;;;;;;;4.05;2.67;;;6.60;99.90;;;;;;2073634;28;20173;-67
2021/12/25 03:05:52;;;;;;;4.47;2.50;;;6.70;99.90;;;;;;2073498;28;20297;-67
2021/12/25 03:06:52;;;;;;;4.40;2.65;;;6.70;99.90;;;;;;2073630;28;20224;-67
2021/12/25 03:07:53;;;;;;;3.17;2.43;;;6.70;99.90;;;;;;2073633;28;20224;-67
2021/12/25 03:08:53;;;;;;;4.20;2.67;;;6.70;99.90;;;;;;2073717;28;20175;-67
2021/12/25 03:09:54;;;;;;;4.17;2.90;;;6.70;99.90;;;;;;2073661;28;20203;-67
2021/12/25 03:10:55;;;;;;;3.73;2.87;;;6.70;99.90;;;;;;2073704;28;20644;-67
2021/12/25 03:11:55;;;;;;;4.80;2.60;;;6.60;99.90;;;;;;2073586;28;20527;-67
2021/12/25 03:13:17;;;;;;;4.07;2.73;;;6.60;99.90;;;;;;2073728;28;20186;-67
2021/12/25 03:14:33;;;;;;;2.85;2.30;;;6.70;99.90;;;;;;2073657;28;20178;-67
2021/12/25 03:15:49;;;;;;;3.90;2.60;;;6.60;99.90;;;;;;2073529;28;20738;-67
2021/12/25 03:16:50;;;;;;;3.65;2.30;;;6.60;99.90;;;;;;2073603;28;20170;-67
2021/12/25 03:17:51;;;;;;;5.73;2.70;;;6.60;99.90;;;;;;2073620;28;20713;-67
2021/12/25 03:18:54;;;;;;;3.93;2.50;;;6.60;99.90;;;;;;2073738;28;20185;-68
2021/12/25 03:19:55;;;;;;;4.18;2.50;;;6.60;99.90;;;;;;2073648;28;20204;-67
2021/12/25 03:21:02;;;;;;;2.83;2.20;;;6.60;99.90;;;;;;2073089;28;20680;-67
2021/12/25 03:22:04;;;;;;;3.60;2.45;;;6.60;99.90;;;;;;2073053;28;20163;-67
2021/12/25 03:23:05;;;;;;;3.90;2.42;;;6.60;99.90;;;;;;2064848;28;20248;-67
2021/12/25 03:24:06;;;;;;;3.77;2.60;;;6.60;99.90;;;;;;2064508;28;20185;-67
2021/12/25 03:25:13;;;;;;;4.15;2.45;;;6.60;99.90;;;;;;2080987;28;20177;-67
2021/12/25 03:26:15;;;;;;;3.72;2.30;;;6.60;99.90;;;;;;2073588;28;20173;-67
2021/12/25 03:27:16;;;;;;;4.45;2.50;;;6.60;99.90;;;;;;2072755;28;20224;-67
2021/12/25 03:28:21;;;;;;;5.47;2.53;;;6.60;99.90;;;;;;2072961;28;20269;-67
2021/12/25 03:29:23;;;;;;;4.32;2.65;;;6.60;99.90;;;;;;2065332;28;20190;-67
2021/12/25 03:30:25;;;;;;;4.05;2.42;;;6.60;99.90;;;;;;2073008;28;20187;-67
2021/12/25 03:31:25;;;;;;;4.15;2.67;;;6.70;99.90;;;;;;2073557;28;20662;-67
2021/12/25 03:32:26;;;;;;;4.13;2.37;;;6.70;99.90;;;;;;2073473;28;20174;-67
2021/12/25 03:33:28;;;;;;;3.30;2.60;;;6.80;99.90;;;;;;2073622;28;20651;-67
2021/12/25 03:34:28;;;;;;;5.55;2.25;;;6.80;99.90;;;;;;2073499;28;20184;-67
2021/12/25 03:35:29;;;;;;;3.80;2.40;;;6.80;99.90;;;;;;2073475;28;20569;-67
2021/12/25 03:36:30;;;;;;;4.03;2.35;;;6.80;99.90;;;;;;2073430;28;20516;-67
2021/12/25 03:37:31;;;;;;;6.17;2.63;;;6.90;99.90;;;;;;2073518;28;20184;-67
2021/12/25 03:38:32;;;;;;;3.10;2.37;;;6.90;99.90;;;;;;2073488;28;20178;-67
2021/12/25 03:39:33;;;;;;;4.00;2.63;;;6.90;99.90;;;;;;2073508;28;20189;-67
2021/12/25 03:40:34;;;;;;;3.40;2.57;;;6.90;99.90;;;;;;2073507;28;20174;-67
2021/12/25 03:41:35;;;;;;;4.50;2.80;;;6.80;99.90;;;;;;2072915;28;20256;-67
2021/12/25 03:42:36;;;;;;;5.20;2.80;;;6.80;99.90;;;;;;2072893;28;20211;-67
2021/12/25 03:43:40;;;;;;;6.30;2.80;;;6.80;99.90;;;;;;2073486;28;20182;-67
2021/12/25 03:44:40;;;;;;;4.00;2.60;;;6.80;99.90;;;;;;2073340;28;20171;-67
2021/12/25 03:45:41;;;;;;;5.20;2.43;;;6.80;99.90;;;;;;2073482;28;20175;-67
2021/12/25 03:46:42;;;;;;;4.05;2.60;;;6.70;99.90;;;;;;2072831;28;20178;-67
2021/12/25 03:47:46;;;;;;;3.25;2.55;;;6.70;99.90;;;;;;2072841;28;20204;-67
2021/12/25 03:57:55;;;;;;;3.83;2.30;;;6.80;99.90;;;;;;2064269;28;20242;-67
2021/12/25 03:58:56;;;;;;;4.50;2.58;;;6.80;99.90;;;;;;2064335;28;20635;-67
2021/12/25 04:00:01;;;;;;;5.43;2.80;;;6.80;99.90;;;;;;2064111;28;20227;-67
2021/12/25 04:01:25;;;;;;;4.00;2.60;;;6.80;99.90;;;;;;2064353;28;20231;-67
2021/12/25 04:02:33;;;;;;;6.30;2.60;;;6.80;99.90;;;;;;2070929;28;20251;-67
2021/12/25 04:03:50;;;;;;;6.32;3.10;;;6.70;99.90;;;;;;2072716;28;20169;-67
2021/12/25 04:04:51;;;;;;;4.75;2.95;;;6.70;99.90;;;;;;2072839;28;20166;-67
2021/12/25 04:05:52;;;;;;;4.27;2.90;;;6.70;99.90;;;;;;2073110;28;20602;-67
2021/12/25 04:07:04;;;;;;;6.53;3.40;;;6.70;99.90;;;;;;2073330;28;20164;-67
2021/12/25 04:09:10;;;;;;;3.77;2.73;;;6.70;99.90;;;;;;2073528;28;20179;-67
2021/12/25 04:10:11;;;;;;;4.18;2.92;;;6.70;99.90;;;;;;2073224;28;20201;-67
2021/12/25 04:11:24;;;;;;;4.70;2.90;;;6.70;99.90;;;;;;2072719;28;20224;-67
2021/12/25 04:12:25;;;;;;;4.38;3.30;;;6.70;99.90;;;;;;2072804;28;20166;-67
2021/12/25 04:13:26;;;;;;;5.33;3.60;;;6.60;99.90;;;;;;2073324;28;20178;-67
2021/12/25 04:14:26;;;;;;;4.43;2.90;;;6.60;99.90;;;;;;2073271;28;20197;-67
2021/12/25 04:15:27;;;;;;;5.00;2.93;;;6.60;99.90;;;;;;2072992;28;20202;-67
2021/12/25 04:16:28;;;;;;;4.47;3.00;;;6.50;99.90;;;;;;2072543;28;20174;-67
2021/12/25 04:17:29;;;;;;;5.30;3.10;;;6.50;99.90;;;;;;2072637;28;20181;-67
2021/12/25 04:18:29;;;;;;;4.47;3.30;;;6.50;99.90;;;;;;2073304;28;20190;-67
2021/12/25 04:19:30;;;;;;;6.40;3.27;;;6.50;99.90;;;;;;2073274;28;20180;-67
2021/12/25 04:20:32;;;;;;;5.37;2.93;;;6.50;99.90;;;;;;2073204;28;20300;-67
2021/12/25 04:21:35;;;;;;;5.57;3.17;;;6.50;99.90;;;;;;2072616;28;20189;-67
2021/12/25 04:22:51;;;;;;;4.05;2.80;;;6.50;99.90;;;;;;2075728;28;20244;-67
2021/12/25 04:23:52;;;;;;;4.68;3.10;;;6.50;99.90;;;;;;2073304;28;20162;-67
2021/12/25 04:24:53;;;;;;;4.90;3.23;;;6.40;99.90;;;;;;2073045;28;20182;-67
2021/12/25 04:25:56;;;;;;;6.43;3.23;;;6.40;99.90;;;;;;2073208;28;20174;-67
2021/12/25 04:26:57;;;;;;;6.20;3.42;;;6.40;99.90;;;;;;2073066;28;20536;-67
2021/12/25 04:28:09;;;;;;;4.22;2.78;;;6.40;99.90;;;;;;2073230;28;20182;-67
2021/12/25 04:29:35;;;;;;;5.80;3.15;;;6.40;99.90;;;;;;2072618;28;20174;-67
2021/12/25 04:30:57;;;;;;;6.43;3.28;;;6.30;99.90;;;;;;2073023;28;20162;-67
2021/12/25 04:32:29;;;;;;;8.27;3.42;;;6.30;99.90;;;;;;2072376;28;20189;-67
2021/12/25 04:42:41;;;;;;;8.10;3.25;;;6.30;99.90;;;;;;2072833;28;20229;-67
2021/12/25 04:42:54;;;;;;;5.10;2.85;;;6.20;99.90;;;;;;2073184;28;20198;-67
2021/12/25 04:48:31;;;;;;;6.07;2.97;;;6.40;99.90;;;;;;2055809;28;20210;-67
2021/12/25 05:02:06;;;;;;;4.57;2.90;;;6.30;99.90;;;;;;2081328;28;20561;-67
2021/12/25 05:03:21;;;;;;;4.78;2.95;;;6.30;99.90;;;;;;2081383;28;20161;-67
2021/12/25 05:04:27;;;;;;;7.00;3.60;;;6.20;99.90;;;;;;2081205;28;20161;-67
2021/12/25 05:05:29;;;;;;;5.07;2.88;;;6.20;99.90;;;;;;2081176;28;20169;-67
2021/12/25 05:06:30;;;;;;;5.22;3.28;;;6.20;99.90;;;;;;2080987;28;20209;-67
2021/12/25 05:07:31;;;;;;;4.80;2.80;;;6.20;99.90;;;;;;2080569;28;20212;-67
2021/12/25 05:08:31;;;;;;;3.87;2.77;;;6.20;99.90;;;;;;2080590;28;20174;-67
2021/12/25 05:09:32;;;;;;;4.27;3.00;;;6.20;99.90;;;;;;2081163;28;20555;-67
2021/12/25 05:10:34;;;;;;;4.95;2.92;;;6.30;99.90;;;;;;2080589;28;20173;-67
2021/12/25 05:11:34;;;;;;;5.45;3.13;;;6.30;99.90;;;;;;2080632;28;20713;-67
2021/12/25 05:12:35;;;;;;;4.50;2.90;;;6.30;99.90;;;;;;2080609;28;20177;-67
2021/12/25 05:13:36;;;;;;;4.63;2.83;;;6.30;99.90;;;;;;2080706;28;20191;-67
2021/12/25 05:14:38;;;;;;;5.18;2.65;;;6.30;99.90;;;;;;2080923;28;20169;-67
2021/12/25 05:15:39;;;;;;;6.53;3.40;;;6.40;99.90;;;;;;2081162;28;20212;-67
2021/12/25 05:16:40;;;;;;;6.67;3.20;;;6.40;99.90;;;;;;2081107;28;20543;-67
2021/12/25 05:17:41;;;;;;;6.10;3.47;;;6.40;99.90;;;;;;2081212;28;20169;-67
2021/12/25 05:18:41;;;;;;;5.33;3.17;;;6.50;99.90;;;;;;2081111;28;20223;-67
2021/12/25 05:19:42;;;;;;;3.20;2.57;;;6.50;99.90;;;;;;2081016;28;20225;-67
2021/12/25 05:20:43;;;;;;;4.93;3.00;;;6.50;99.90;;;;;;2081205;28;20213;-67
2021/12/25 05:21:43;;;;;;;4.00;2.53;;;6.60;99.90;;;;;;2081171;28;20285;-67
2021/12/25 05:22:44;;;;;;;4.30;2.80;;;6.60;99.90;;;;;;2081109;28;20181;-67
2021/12/25 05:23:45;;;;;;;5.33;3.10;;;6.70;99.90;;;;;;2081168;28;20264;-67
2021/12/25 05:24:46;;;;;;;3.05;2.38;;;6.70;99.90;;;;;;2080295;28;20179;-67
2021/12/25 05:25:49;;;;;;;3.60;2.63;;;6.80;99.90;;;;;;2080566;28;20205;-67
2021/12/25 05:26:50;;;;;;;3.95;2.40;;;6.80;99.90;;;;;;2081153;28;20187;-67
2021/12/25 05:27:50;;;;;;;3.63;2.50;;;6.90;99.80;;;;;;2081207;28;20213;-67
2021/12/25 05:28:59;;;;;;;4.90;2.10;;;6.90;99.60;;;;;;2081187;28;20181;-67
2021/12/25 05:29:59;;;;;;;4.45;3.03;;;6.90;99.40;;;;;;2081144;28;20207;-67
2021/12/25 05:31:00;;;;;;;3.10;2.37;;;6.90;99.50;;;;;;2080988;28;20284;-67
2021/12/25 05:32:00;;;;;;;3.47;2.17;;;6.90;99.30;;;;;;2081161;28;20187;-67
2021/12/25 05:33:01;;;;;;;3.87;2.60;;;6.90;99.00;;;;;;2081231;28;20194;-67
2021/12/25 05:34:03;;;;;;;3.80;2.30;;;7.00;99.00;;;;;;2081141;28;20189;-67
2021/12/25 05:35:04;;;;;;;4.03;2.50;;;7.00;99.10;;;;;;2080974;28;20207;-67
2021/12/25 05:36:05;;;;;;;3.50;2.33;;;6.90;99.20;;;;;;2081006;28;20183;-67
2021/12/25 05:37:06;;;;;;;3.95;2.63;;;6.90;99.10;;;;;;2081126;28;20177;-67
2021/12/25 05:38:13;;;;;;;5.17;2.53;;;6.90;99.00;;;;;;2081121;28;20175;-67
2021/12/25 05:39:15;;;;;;;3.60;2.60;;;6.90;99.00;;;;;;2081309;28;20169;-67
2021/12/25 05:40:15;;;;;;;3.88;1.92;;;6.90;99.10;;;;;;2081023;28;20197;-67
2021/12/25 05:41:16;;;;;;;4.37;2.13;;;6.90;98.80;;;;;;2081049;28;20229;-67
2021/12/25 05:42:20;;;;;;;3.72;2.60;;;6.80;98.70;;;;;;2081011;28;20181;-67
2021/12/25 05:43:21;;;;;;;3.42;2.30;;;6.80;98.90;;;;;;2080408;28;20183;-67
2021/12/25 05:44:22;;;;;;;4.87;2.53;;;6.80;99.00;;;;;;2072394;28;20186;-67
2021/12/25 05:45:22;;;;;;;3.97;2.40;;;6.80;99.00;;;;;;2080410;28;20587;-67
2021/12/25 05:46:24;;;;;;;5.23;2.10;;;6.80;99.10;;;;;;2080925;28;20691;-67
2021/12/25 05:47:26;;;;;;;3.63;2.53;;;6.70;99.20;;;;;;2080471;28;20192;-67
2021/12/25 05:48:27;;;;;;;3.85;2.55;;;6.70;99.30;;;;;;2080491;28;20240;-67
2021/12/25 05:49:27;;;;;;;5.23;2.57;;;6.70;99.40;;;;;;2080999;28;20186;-67
2021/12/25 05:50:28;;;;;;;3.67;2.50;;;6.60;99.50;;;;;;2081119;28;20177;-67
2021/12/25 05:51:29;;;;;;;4.07;2.67;;;6.60;99.50;;;;;;2082622;28;20205;-67
2021/12/25 05:52:29;;;;;;;3.77;2.67;;;6.50;99.60;;;;;;2081801;28;20177;-67
2021/12/25 05:53:30;;;;;;;6.30;3.03;;;6.50;99.70;;;;;;2081966;28;20173;-67
2021/12/25 05:54:31;;;;;;;3.27;2.37;;;6.50;99.80;;;;;;2082347;28;20184;-67
2021/12/25 05:55:32;;;;;;;4.87;2.70;;;6.40;99.90;;;;;;2082450;28;20204;-67
2021/12/25 05:56:33;;;;;;;3.20;2.60;;;6.40;99.90;;;;;;2082408;28;20180;-66
2021/12/25 05:57:34;;;;;;;6.60;3.30;;;6.40;99.90;;;;;;2082394;28;20257;-66
2021/12/25 05:58:34;;;;;;;6.17;3.33;;;6.30;99.90;;;;;;2082379;28;20173;-67
2021/12/25 05:59:35;;;;;;;3.20;2.23;;;6.40;99.90;;;;;;2081794;28;20223;-67
2021/12/25 06:00:38;;;;;;;4.63;3.17;;;6.30;99.90;;;;;;2081762;28;20256;-67
2021/12/25 06:01:39;;;;;;;5.75;2.92;;;6.30;99.90;;;;;;2082443;28;20173;-66
2021/12/25 06:02:40;;;;;;;5.32;3.15;;;6.30;99.90;;;;;;2082300;28;20169;-67
2021/12/25 06:03:41;;;;;;;4.40;2.77;;;6.20;99.90;;;;;;2081857;28;20211;-67
2021/12/25 06:04:41;;;;;;;4.13;2.83;;;6.20;99.90;;;;;;2081637;28;20180;-67
2021/12/25 06:05:42;;;;;;;4.57;2.90;;;6.20;99.90;;;;;;2081630;28;20189;-66
2021/12/25 06:06:43;;;;;;;3.63;2.60;;;6.20;99.90;;;;;;2073634;28;20250;-66
2021/12/25 06:07:44;;;;;;;3.80;2.33;;;6.20;99.90;;;;;;2082146;28;20816;-67
2021/12/25 06:08:45;;;;;;;5.17;3.10;;;6.20;99.90;;;;;;2083163;28;20223;-66
2021/12/25 06:09:45;;;;;;;3.50;2.60;;;6.10;99.90;;;;;;2082420;28;20450;-66
2021/12/25 06:10:46;;;;;;;4.93;2.97;;;6.10;99.90;;;;;;2082350;28;20200;-66
2021/12/25 06:11:47;;;;;;;5.00;3.20;;;6.20;99.90;;;;;;2082399;28;20181;-66
2021/12/25 06:12:49;;;;;;;3.63;2.87;;;6.20;99.90;;;;;;2082343;28;20187;-66
2021/12/25 06:13:58;;;;;;;4.65;3.00;;;6.20;99.90;;;;;;2082358;28;20610;-67
2021/12/25 06:15:01;;;;;;;3.33;2.75;;;6.20;99.90;;;;;;2081500;28;20195;-66
2021/12/25 06:16:02;;;;;;;4.55;2.75;;;6.20;99.90;;;;;;2074739;28;20174;-66
2021/12/25 06:17:03;;;;;;;4.90;2.90;;;6.20;99.90;;;;;;2081674;28;20180;-67
2021/12/25 06:18:04;;;;;;;5.20;3.20;;;6.20;99.90;;;;;;2082318;28;20177;-66
2021/12/25 06:19:05;;;;;;;4.20;2.70;;;6.20;99.90;;;;;;2082219;28;20185;-66
2021/12/25 06:20:08;;;;;;;5.40;2.88;;;6.20;99.90;;;;;;2082207;28;20196;-66
2021/12/25 06:21:08;;;;;;;5.20;2.85;;;6.20;99.90;;;;;;2081549;28;20185;-66
2021/12/25 06:22:09;;;;;;;6.50;3.50;;;6.10;99.90;;;;;;2081726;28;20606;-66
2021/12/25 06:23:10;;;;;;;5.40;3.70;;;6.10;99.90;;;;;;2082236;28;20547;-66
2021/12/25 06:24:14;;;;;;;8.18;4.82;;;6.10;99.90;;;;;;2081537;28;20591;-66
2021/12/25 06:25:15;;;;;;;9.27;5.55;;;6.10;99.90;;;;;;2081479;28;20185;-67
2021/12/25 06:26:16;;;;;;;8.87;5.40;;;6.10;99.90;;;;;;2082276;28;20559;-66
2021/12/25 06:27:18;;;;;;;6.53;4.40;;;6.10;99.90;;;;;;2082088;28;20577;-66
2021/12/25 06:28:19;;;;;;;6.32;3.60;;;6.10;99.90;;;;;;2081610;28;20183;-67
2021/12/25 06:29:20;;;;;;;7.47;4.57;;;6.10;99.90;;;;;;2081408;28;20751;-67
2021/12/25 06:30:21;;;;;;;5.77;4.53;;;6.10;99.90;;;;;;2082203;28;20209;-66